Time;durP1;ratioP1;P1;durP2;ratioP2;P2;SDS_P1;SDS_P2;PMS_P1;PMS_P2;Temp;Humidity;BMP_temperature;BMP_pressure;BME280_temperature;BME280_humidity;BME280_pressure;Samples;Min_cycle;Max_cycle;Signal;HPM_P1;HPM_P2
2024/04/16 00:02:36;;;;;;;2.60;2.17;;;;;;;11.48;100.00;96447.50;6704109;26;20322;-54
2024/04/16 00:05:39;;;;;;;3.50;2.13;;;;;;;11.47;100.00;96444.00;6703443;26;20270;-55
2024/04/16 00:08:41;;;;;;;2.83;2.10;;;;;;;11.50;100.00;96446.13;6698564;26;20336;-52
2024/04/16 00:11:44;;;;;;;4.87;2.80;;;;;;;11.54;100.00;96441.81;6709437;26;20296;-53
2024/04/16 00:15:01;;;;;;;6.57;2.27;;;;;;;11.50;100.00;96448.78;6696311;26;20270;-53
2024/04/16 00:18:04;;;;;;;6.07;2.37;;;;;;;11.39;100.00;96457.94;6685714;26;20724;-54
2024/04/16 00:21:06;;;;;;;2.43;1.97;;;;;;;11.54;100.00;96457.03;6709468;26;20237;-54
2024/04/16 00:24:09;;;;;;;5.60;2.53;;;;;;;11.46;100.00;96461.06;6700593;26;20325;-52
2024/04/16 00:27:12;;;;;;;3.63;1.60;;;;;;;11.40;100.00;96458.72;6697455;26;20236;-53
2024/04/16 00:30:14;;;;;;;3.70;2.03;;;;;;;11.41;100.00;96463.78;6710287;26;20317;-53
2024/04/16 00:33:17;;;;;;;6.03;2.57;;;;;;;11.41;100.00;96461.13;6710254;26;20279;-53
2024/04/16 00:36:19;;;;;;;3.13;2.40;;;;;;;11.40;100.00;96464.06;6703145;26;20232;-54
2024/04/16 00:39:22;;;;;;;3.10;2.37;;;;;;;11.37;100.00;96460.06;6732705;26;20276;-54
2024/04/16 00:42:24;;;;;;;2.30;2.00;;;;;;;11.33;100.00;96472.38;6702894;26;20233;-52
2024/04/16 00:45:27;;;;;;;2.93;2.27;;;;;;;11.27;100.00;96471.59;6713100;26;20731;-53
2024/04/16 00:48:30;;;;;;;3.43;2.37;;;;;;;11.23;100.00;96459.09;6704609;26;20240;-53
2024/04/16 00:51:34;;;;;;;3.00;2.30;;;;;;;11.27;100.00;96460.13;6718489;26;20237;-55
2024/04/16 00:54:36;;;;;;;3.80;2.50;;;;;;;11.29;100.00;96460.66;6710291;26;20322;-56
2024/04/16 00:57:39;;;;;;;7.20;3.13;;;;;;;11.37;100.00;96466.19;6712102;26;20236;-54
2024/04/16 01:00:42;;;;;;;3.20;2.80;;;;;;;11.37;100.00;96470.72;6706639;26;20241;-54
2024/04/16 01:03:44;;;;;;;5.70;3.20;;;;;;;11.32;100.00;96463.56;6731479;26;20232;-51
2024/04/16 01:06:51;;;;;;;4.17;3.30;;;;;;;11.26;100.00;96469.22;6728756;26;20300;-54
2024/04/16 01:09:53;;;;;;;3.73;2.97;;;;;;;11.22;100.00;96468.16;6688723;26;20943;-54
2024/04/16 01:12:56;;;;;;;4.33;3.40;;;;;;;11.24;100.00;96474.03;6708380;26;20253;-55
2024/04/16 01:15:59;;;;;;;6.97;3.10;;;;;;;11.14;100.00;96464.22;6722485;26;20308;-55
2024/04/16 01:19:02;;;;;;;4.87;3.00;;;;;;;11.16;100.00;96461.28;6721119;26;20236;-55
2024/04/16 01:22:05;;;;;;;6.70;3.00;;;;;;;10.95;100.00;96458.72;6717333;26;20752;-55
2024/04/16 01:25:09;;;;;;;9.90;3.43;;;;;;;10.98;100.00;96449.34;6704080;26;20249;-52
2024/04/16 01:28:11;;;;;;;3.93;2.83;;;;;;;10.89;100.00;96443.81;6709121;26;20283;-52
2024/04/16 01:31:17;;;;;;;4.83;2.47;;;;;;;10.87;100.00;96451.28;6708973;26;20789;-53
2024/04/16 01:34:20;;;;;;;3.93;2.50;;;;;;;10.79;100.00;96446.53;6713089;26;20340;-54
2024/04/16 01:37:22;;;;;;;7.67;2.90;;;;;;;10.68;100.00;96455.63;6703486;26;20256;-53
2024/04/16 01:40:25;;;;;;;3.10;2.80;;;;;;;10.57;100.00;96450.34;6713794;26;20593;-54
2024/04/16 01:43:27;;;;;;;5.47;2.60;;;;;;;10.57;100.00;96460.19;6714162;26;20802;-54
2024/04/16 01:46:30;;;;;;;4.87;2.70;;;;;;;10.52;100.00;96454.88;6711672;26;20229;-55
2024/04/16 01:49:33;;;;;;;6.77;3.30;;;;;;;10.46;100.00;96458.63;6713089;26;20251;-54
2024/04/16 01:52:35;;;;;;;6.53;3.10;;;;;;;10.35;100.00;96460.53;6719595;26;20305;-55
2024/04/16 01:55:38;;;;;;;4.90;3.10;;;;;;;10.45;100.00;96467.69;6734718;26;20233;-56
2024/04/16 01:58:41;;;;;;;4.43;3.63;;;;;;;10.43;100.00;96467.16;6707369;26;20305;-55
2024/04/16 02:01:44;;;;;;;5.87;4.00;;;;;;;10.37;100.00;96486.88;6691128;26;20240;-53
2024/04/16 02:04:47;;;;;;;10.67;3.83;;;;;;;10.28;100.00;96479.44;6717347;26;20236;-54
2024/04/16 02:07:50;;;;;;;10.33;3.70;;;;;;;10.26;100.00;96465.59;6708310;26;20283;-54
2024/04/16 02:10:55;;;;;;;12.73;4.00;;;;;;;10.25;100.00;96457.88;6731984;26;20356;-55
2024/04/16 02:13:57;;;;;;;10.70;4.60;;;;;;;10.18;100.00;96467.97;6717603;26;20238;-54
2024/04/16 02:17:00;;;;;;;6.30;3.77;;;;;;;10.12;100.00;96475.16;6718087;26;20648;-55
2024/04/16 02:20:02;;;;;;;8.00;3.80;;;;;;;10.13;100.00;96478.63;6709201;26;20663;-56
2024/04/16 02:23:05;;;;;;;5.87;3.53;;;;;;;10.31;100.00;96492.22;6721176;26;20243;-56
2024/04/16 02:26:08;;;;;;;9.03;4.00;;;;;;;10.18;100.00;96514.00;6709508;26;20568;-57
2024/04/16 02:29:10;;;;;;;6.50;3.50;;;;;;;10.12;100.00;96547.00;6724617;26;20240;-54
2024/04/16 02:32:12;;;;;;;7.27;3.07;;;;;;;9.94;100.00;96539.56;6712485;26;20239;-55
2024/04/16 02:35:15;;;;;;;6.47;1.83;;;;;;;9.82;100.00;96522.00;6705320;26;20752;-55
2024/04/16 02:38:18;;;;;;;4.40;2.13;;;;;;;9.55;100.00;96513.44;6722840;26;20292;-57
2024/04/16 02:41:20;;;;;;;3.17;1.47;;;;;;;9.47;100.00;96527.28;6714596;26;20237;-57
2024/04/16 02:44:23;;;;;;;6.63;2.63;;;;;;;9.30;100.00;96516.84;6717893;26;20232;-56
2024/04/16 02:47:25;;;;;;;8.20;1.93;;;;;;;9.02;100.00;96507.47;6704560;26;20289;-54
2024/04/16 02:50:28;;;;;;;3.20;1.20;;;;;;;8.93;100.00;96514.34;6707873;26;20238;-56
2024/04/16 02:53:31;;;;;;;10.27;1.93;;;;;;;8.78;100.00;96509.78;6717901;26;20234;-55
2024/04/16 02:56:33;;;;;;;4.87;1.20;;;;;;;8.55;100.00;96507.53;6702913;26;20237;-57
2024/04/16 02:59:36;;;;;;;8.10;1.40;;;;;;;8.31;100.00;96507.09;6712776;26;20295;-56
2024/04/16 03:02:39;;;;;;;1.60;0.93;;;;;;;8.26;100.00;96519.25;6703073;26;20322;-57
2024/04/16 03:05:42;;;;;;;2.50;1.00;;;;;;;8.02;100.00;96536.59;6707708;26;20237;-53
2024/04/16 03:08:44;;;;;;;4.83;0.83;;;;;;;7.88;100.00;96538.06;6710082;26;20683;-54
2024/04/16 03:11:49;;;;;;;7.53;1.30;;;;;;;7.90;100.00;96533.31;6708527;26;20360;-55
2024/04/16 03:14:52;;;;;;;6.57;1.10;;;;;;;7.85;100.00;96522.66;6706084;26;20244;-54
2024/04/16 03:17:55;;;;;;;7.20;0.87;;;;;;;7.80;100.00;96518.13;6729530;26;20279;-54
2024/04/16 03:21:00;;;;;;;3.67;0.87;;;;;;;7.59;100.00;96524.31;6716152;26;20681;-54
2024/04/16 03:24:03;;;;;;;8.67;0.97;;;;;;;7.52;100.00;96521.84;6706517;26;20268;-53
2024/04/16 03:27:05;;;;;;;4.13;0.73;;;;;;;7.43;100.00;96512.72;6704668;26;20271;-55
2024/04/16 03:30:08;;;;;;;0.97;0.60;;;;;;;7.37;100.00;96541.03;6722008;26;20739;-55
2024/04/16 03:33:11;;;;;;;4.10;0.40;;;;;;;7.12;100.00;96540.75;6710141;26;20271;-55
2024/04/16 03:36:13;;;;;;;2.70;0.90;;;;;;;6.83;100.00;96540.94;6714309;26;20299;-51
2024/04/16 03:39:16;;;;;;;2.80;0.53;;;;;;;6.81;100.00;96542.25;6709537;26;20287;-56
2024/04/16 03:42:19;;;;;;;4.17;0.87;;;;;;;6.79;100.00;96555.69;6677762;26;20359;-56
2024/04/16 03:45:22;;;;;;;1.63;0.63;;;;;;;6.61;100.00;96563.94;6724344;26;20229;-56
2024/04/16 03:48:25;;;;;;;3.37;0.80;;;;;;;6.53;100.00;96569.66;6718491;26;20237;-53
2024/04/16 03:51:29;;;;;;;5.43;0.97;;;;;;;6.38;100.00;96570.22;6703344;26;20751;-55
2024/04/16 03:54:32;;;;;;;1.43;0.50;;;;;;;6.15;100.00;96592.34;6710617;26;20244;-54
2024/04/16 03:57:34;;;;;;;2.27;0.77;;;;;;;6.13;100.00;96583.84;6704374;26;20348;-55
2024/04/16 04:03:58;;;;;;;6.70;1.30;;;;;;;5.91;100.00;96610.16;6708046;26;20803;-56
2024/04/16 04:07:01;;;;;;;2.27;0.70;;;;;;;5.81;100.00;96609.97;6716922;26;20367;-55
2024/04/16 04:10:05;;;;;;;1.80;0.50;;;;;;;5.63;100.00;96600.41;6703084;26;20283;-56
2024/04/16 04:13:08;;;;;;;1.73;0.60;;;;;;;5.58;100.00;96573.91;6711554;26;20954;-56
2024/04/16 04:16:12;;;;;;;6.80;0.80;;;;;;;5.54;100.00;96612.41;6703492;26;20231;-55
2024/04/16 04:19:15;;;;;;;1.93;0.40;;;;;;;5.42;100.00;96626.47;6702161;26;20247;-54
2024/04/16 04:22:17;;;;;;;2.63;0.60;;;;;;;5.23;100.00;96605.75;6703662;26;20238;-55
2024/04/16 04:25:20;;;;;;;0.57;0.30;;;;;;;5.20;100.00;96622.03;6687185;26;20344;-54
2024/04/16 04:28:23;;;;;;;4.50;0.80;;;;;;;5.18;100.00;96599.31;6714457;26;20293;-55
2024/04/16 04:31:25;;;;;;;3.10;0.40;;;;;;;5.15;100.00;96623.53;6709296;26;20236;-56
2024/04/16 04:34:28;;;;;;;2.43;0.50;;;;;;;5.20;100.00;96620.19;6729948;26;20271;-55
2024/04/16 04:37:30;;;;;;;2.23;0.80;;;;;;;5.26;100.00;96608.69;6705967;26;20235;-55
2024/04/16 04:40:35;;;;;;;2.27;0.50;;;;;;;5.08;100.00;96579.84;6717024;26;20750;-57
2024/04/16 04:43:38;;;;;;;4.73;0.70;;;;;;;5.05;100.00;96580.28;6707077;26;20808;-55
2024/04/16 04:46:41;;;;;;;0.73;0.33;;;;;;;5.03;100.00;96583.19;6702449;26;20238;-55
2024/04/16 04:49:43;;;;;;;1.33;0.87;;;;;;;5.02;100.00;96581.53;6713795;26;20781;-54
2024/04/16 04:52:46;;;;;;;3.60;0.60;;;;;;;4.95;100.00;96588.81;6708923;26;20240;-56
2024/04/16 04:55:48;;;;;;;0.80;0.40;;;;;;;4.87;100.00;96597.88;6709414;26;20276;-56
2024/04/16 04:58:51;;;;;;;1.10;0.40;;;;;;;4.79;100.00;96578.97;6700123;26;21048;-55
2024/04/16 05:01:54;;;;;;;1.83;0.50;;;;;;;4.84;100.00;96573.81;6709838;26;20293;-53
2024/04/16 05:04:56;;;;;;;1.43;0.50;;;;;;;4.71;100.00;96564.28;6722798;26;20256;-53
2024/04/16 05:07:59;;;;;;;1.67;0.47;;;;;;;4.69;100.00;96586.69;6711459;26;20288;-56
2024/04/16 05:11:01;;;;;;;1.40;0.50;;;;;;;4.68;100.00;96599.06;6704167;26;20712;-55
2024/04/16 05:14:09;;;;;;;2.10;0.93;;;;;;;4.71;100.00;96622.31;6706913;26;20383;-54
2024/04/16 05:17:12;;;;;;;2.23;0.70;;;;;;;4.66;100.00;96604.56;6724179;26;20284;-56
2024/04/16 05:20:15;;;;;;;2.97;0.53;;;;;;;4.79;100.00;96627.25;6719253;26;20278;-55
2024/04/16 05:23:18;;;;;;;3.33;1.13;;;;;;;4.72;100.00;96645.03;6707899;26;20238;-55
2024/04/16 05:26:22;;;;;;;2.80;0.53;;;;;;;4.58;100.00;96636.56;6725193;26;20249;-54
2024/04/16 05:29:24;;;;;;;2.83;0.73;;;;;;;4.58;100.00;96630.47;6732944;26;20244;-55
2024/04/16 05:32:27;;;;;;;1.70;0.70;;;;;;;4.69;100.00;96634.97;6707699;26;20240;-55
2024/04/16 05:35:29;;;;;;;1.23;0.60;;;;;;;4.69;100.00;96640.22;6708711;26;20245;-54
2024/04/16 05:38:33;;;;;;;1.83;0.40;;;;;;;4.68;100.00;96651.00;6706793;26;20724;-56
2024/04/16 05:41:35;;;;;;;2.03;0.60;;;;;;;4.73;100.00;96665.13;6707804;26;20832;-55
2024/04/16 05:44:38;;;;;;;1.50;0.70;;;;;;;4.71;100.00;96661.91;6711123;26;20237;-56
2024/04/16 05:47:41;;;;;;;1.27;0.50;;;;;;;4.88;100.00;96686.56;6709546;26;20233;-56
2024/04/16 05:50:44;;;;;;;2.83;0.80;;;;;;;4.88;100.00;96677.88;6706400;26;20233;-55
2024/04/16 05:53:46;;;;;;;3.43;0.70;;;;;;;4.78;100.00;96686.34;6706399;26;20239;-55
2024/04/16 05:56:49;;;;;;;1.17;0.70;;;;;;;5.13;100.00;96683.69;6702322;26;20241;-56
2024/04/16 05:59:52;;;;;;;2.77;0.50;;;;;;;5.03;100.00;96682.66;6705762;26;20228;-55
2024/04/16 06:02:54;;;;;;;1.53;0.47;;;;;;;4.95;100.00;96683.81;6677208;26;20245;-54
2024/04/16 06:05:57;;;;;;;2.10;0.53;;;;;;;4.72;100.00;96699.63;6705900;26;20312;-51
2024/04/16 06:09:04;;;;;;;1.43;0.50;;;;;;;4.58;100.00;96683.22;6705340;26;20283;-57
2024/04/16 06:12:07;;;;;;;2.70;0.80;;;;;;;4.51;100.00;96696.53;6714574;26;20290;-57
2024/04/16 06:15:09;;;;;;;1.87;0.60;;;;;;;4.41;100.00;96677.81;6711031;26;20249;-54
2024/04/16 06:18:12;;;;;;;6.27;0.77;;;;;;;4.42;100.00;96683.88;6710891;26;20238;-56
2024/04/16 06:21:14;;;;;;;3.03;0.60;;;;;;;4.36;100.00;96693.50;6715142;26;20233;-57
2024/04/16 06:24:17;;;;;;;2.73;0.80;;;;;;;4.25;100.00;96692.47;6720112;26;20295;-58
2024/04/16 06:27:19;;;;;;;1.97;0.70;;;;;;;4.07;100.00;96681.97;6713003;26;20798;-54
2024/04/16 06:30:22;;;;;;;1.57;0.80;;;;;;;4.18;100.00;96699.66;6715916;26;20783;-55
2024/04/16 06:33:25;;;;;;;1.80;0.90;;;;;;;4.18;100.00;96720.72;6715689;26;20240;-55
2024/04/16 06:36:27;;;;;;;0.93;0.90;;;;;;;4.15;100.00;96721.19;6721767;26;20241;-55
2024/04/16 06:39:30;;;;;;;1.27;0.90;;;;;;;4.22;100.00;96715.81;6712979;26;20275;-58
2024/04/16 06:42:36;;;;;;;2.30;1.10;;;;;;;4.17;100.00;96736.78;6704496;26;20291;-58
2024/04/16 06:45:39;;;;;;;1.63;1.30;;;;;;;4.13;100.00;96723.25;6699218;26;20353;-55
2024/04/16 06:48:41;;;;;;;3.30;1.70;;;;;;;4.11;100.00;96730.59;6712733;26;20279;-56
2024/04/16 06:51:45;;;;;;;2.30;1.20;;;;;;;3.92;100.00;96705.31;6724167;26;20244;-57
2024/04/16 06:54:50;;;;;;;1.97;1.07;;;;;;;4.05;100.00;96708.56;6711967;26;20279;-54
2024/04/16 06:57:55;;;;;;;1.03;0.93;;;;;;;3.93;100.00;96717.44;6701793;26;20237;-56
2024/04/16 07:00:57;;;;;;;1.33;0.97;;;;;;;4.01;100.00;96714.50;6707796;26;20316;-56
2024/04/16 07:04:01;;;;;;;2.57;1.27;;;;;;;3.99;100.00;96732.34;6713593;26;20591;-57
2024/04/16 07:07:04;;;;;;;2.57;0.97;;;;;;;3.93;100.00;96728.78;6699528;26;20284;-55
2024/04/16 07:10:09;;;;;;;1.73;0.90;;;;;;;3.81;100.00;96730.56;6693050;26;20253;-54
2024/04/16 07:13:12;;;;;;;1.80;0.73;;;;;;;3.97;100.00;96747.59;6708299;26;20279;-54
2024/04/16 07:16:18;;;;;;;2.07;1.00;;;;;;;3.95;100.00;96749.66;6697596;26;20721;-58
2024/04/16 07:19:21;;;;;;;1.07;0.73;;;;;;;3.95;100.00;96747.81;6705670;26;20287;-55
2024/04/16 07:22:24;;;;;;;1.67;0.87;;;;;;;3.88;100.00;96739.19;6704876;26;20732;-52
2024/04/16 07:25:26;;;;;;;1.10;0.80;;;;;;;3.87;100.00;96754.19;6704250;26;20279;-57
2024/04/16 07:28:29;;;;;;;1.07;0.70;;;;;;;3.83;100.00;96731.94;6720165;26;20285;-55
2024/04/16 07:31:35;;;;;;;2.93;0.80;;;;;;;3.84;100.00;96730.94;6702193;26;20844;-57
2024/04/16 07:34:46;;;;;;;1.63;0.80;;;;;;;3.81;100.00;96744.53;6703178;26;20229;-55
2024/04/16 07:37:48;;;;;;;2.13;0.80;;;;;;;3.80;100.00;96742.16;6704607;26;20252;-55
2024/04/16 07:40:55;;;;;;;1.80;0.90;;;;;;;3.74;100.00;96737.75;6718733;26;20797;-55
2024/04/16 07:43:57;;;;;;;2.97;0.63;;;;;;;3.96;100.00;96728.34;6675905;26;20606;-52
2024/04/16 07:47:00;;;;;;;0.87;0.57;;;;;;;3.93;100.00;96712.16;6708422;26;20237;-57
2024/04/16 07:50:02;;;;;;;3.80;0.90;;;;;;;4.05;100.00;96718.31;6736301;26;20232;-54
2024/04/16 07:53:05;;;;;;;2.17;0.80;;;;;;;4.05;100.00;96726.22;6699034;26;20732;-56
2024/04/16 07:56:08;;;;;;;2.87;0.77;;;;;;;4.02;100.00;96738.00;6709297;26;20289;-53
2024/04/16 07:59:10;;;;;;;1.97;0.93;;;;;;;4.03;100.00;96721.16;6706738;26;20846;-57
2024/04/16 08:02:13;;;;;;;1.77;0.70;;;;;;;4.12;100.00;96722.44;6672106;26;20253;-57
2024/04/16 08:05:15;;;;;;;2.10;0.80;;;;;;;4.18;100.00;96733.91;6723363;26;20931;-52
2024/04/16 08:08:19;;;;;;;2.30;0.97;;;;;;;4.19;100.00;96742.63;6728560;26;20236;-53
2024/04/16 08:11:33;;;;;;;2.67;1.30;;;;;;;4.17;100.00;96729.69;6708756;26;20298;-55
2024/04/16 08:14:36;;;;;;;2.00;1.17;;;;;;;4.23;100.00;96736.69;6709112;26;20737;-53
2024/04/16 08:17:39;;;;;;;4.27;1.10;;;;;;;4.17;100.00;96740.22;6705518;26;20233;-56
2024/04/16 08:20:42;;;;;;;1.73;0.90;;;;;;;4.20;100.00;96739.78;6727406;26;20230;-51
2024/04/16 08:23:44;;;;;;;1.10;0.67;;;;;;;4.32;100.00;96751.16;6714510;26;20311;-55
2024/04/16 08:26:49;;;;;;;1.27;0.77;;;;;;;4.54;100.00;96761.22;6703109;26;20267;-55
2024/04/16 08:29:51;;;;;;;3.03;0.87;;;;;;;4.29;100.00;96743.72;6718084;26;20720;-56
2024/04/16 08:32:54;;;;;;;1.30;0.77;;;;;;;4.33;100.00;96744.84;6716137;26;20252;-54
2024/04/16 08:35:57;;;;;;;1.47;0.80;;;;;;;4.34;100.00;96761.50;6738897;26;20246;-55
2024/04/16 08:39:00;;;;;;;2.20;0.80;;;;;;;4.34;100.00;96777.31;6709714;26;20284;-52
2024/04/16 08:42:03;;;;;;;3.40;1.03;;;;;;;4.45;100.00;96787.09;6723440;26;20710;-56
2024/04/16 08:45:08;;;;;;;1.67;0.90;;;;;;;4.53;100.00;96781.50;6703788;26;20283;-56
2024/04/16 08:48:12;;;;;;;1.27;0.70;;;;;;;4.53;100.00;96780.69;6723023;26;20232;-54
2024/04/16 08:51:17;;;;;;;1.73;0.77;;;;;;;4.60;100.00;96778.75;6719950;26;20230;-53
2024/04/16 08:54:21;;;;;;;1.73;0.70;;;;;;;4.56;100.00;96765.22;6707995;26;20246;-57
2024/04/16 08:57:26;;;;;;;2.73;0.70;;;;;;;4.56;100.00;96767.06;6703937;26;20352;-55
2024/04/16 09:00:28;;;;;;;3.27;0.60;;;;;;;4.61;100.00;96760.06;6718857;26;20237;-55
2024/04/16 09:03:32;;;;;;;1.57;0.70;;;;;;;4.68;100.00;96773.16;6719697;26;20238;-56
2024/04/16 09:06:35;;;;;;;2.27;0.83;;;;;;;4.76;100.00;96778.09;6705957;26;20349;-54
2024/04/16 09:09:37;;;;;;;2.00;0.87;;;;;;;4.68;100.00;96762.63;6710237;26;20240;-55
2024/04/16 09:12:43;;;;;;;2.43;0.77;;;;;;;4.71;100.00;96764.78;6709670;26;20922;-55
2024/04/16 09:15:47;;;;;;;0.57;0.50;;;;;;;4.74;100.00;96753.00;6723134;26;20786;-55
2024/04/16 09:18:50;;;;;;;3.37;0.70;;;;;;;4.78;100.00;96767.31;6707978;26;20286;-56
2024/04/16 09:21:58;;;;;;;1.83;0.57;;;;;;;4.85;100.00;96779.38;6706095;26;20241;-55
2024/04/16 09:25:07;;;;;;;3.10;0.97;;;;;;;4.89;100.00;96780.53;6719000;26;20236;-56
2024/04/16 09:28:13;;;;;;;3.73;0.80;;;;;;;4.95;100.00;96773.53;6715038;26;20230;-57
2024/04/16 09:31:18;;;;;;;2.20;0.80;;;;;;;5.00;100.00;96780.78;6713351;26;20324;-56
2024/04/16 09:34:21;;;;;;;3.90;0.93;;;;;;;4.98;100.00;96777.56;6706554;26;20358;-56
2024/04/16 09:37:23;;;;;;;2.23;0.63;;;;;;;4.99;100.00;96763.34;6702703;26;20236;-55
2024/04/16 09:40:30;;;;;;;2.77;0.87;;;;;;;5.00;100.00;96778.94;6728317;26;20241;-56
2024/04/16 09:43:33;;;;;;;2.87;0.80;;;;;;;5.03;100.00;96793.53;6716007;26;20280;-56
2024/04/16 09:46:37;;;;;;;1.77;0.80;;;;;;;5.19;100.00;96784.94;6707661;26;20239;-56
2024/04/16 09:49:41;;;;;;;6.83;0.80;;;;;;;5.08;100.00;96783.88;6725897;26;20615;-54
2024/04/16 09:53:06;;;;;;;1.40;0.57;;;;;;;5.17;100.00;96779.06;6725979;26;21040;-56
2024/04/16 09:56:10;;;;;;;1.40;0.70;;;;;;;5.21;100.00;96796.03;6710670;26;20251;-53
2024/04/16 09:59:14;;;;;;;2.13;0.80;;;;;;;5.14;100.00;96792.72;6707720;26;20740;-56
2024/04/16 10:02:18;;;;;;;1.67;0.90;;;;;;;5.15;100.00;96812.81;6710834;26;20285;-55
2024/04/16 10:05:20;;;;;;;2.30;0.73;;;;;;;5.27;100.00;96803.06;6721071;26;20241;-54
2024/04/16 10:08:25;;;;;;;2.87;0.80;;;;;;;5.36;100.00;96798.22;6682624;26;20237;-56
2024/04/16 10:11:28;;;;;;;0.90;0.70;;;;;;;5.28;100.00;96790.66;6703933;26;20288;-55
2024/04/16 10:14:35;;;;;;;2.10;0.80;;;;;;;5.16;100.00;96785.38;6720811;26;20354;-57
2024/04/16 10:17:51;;;;;;;1.60;0.77;;;;;;;5.16;100.00;96795.94;6710164;26;20286;-58
2024/04/16 10:20:59;;;;;;;3.33;1.23;;;;;;;5.14;100.00;96775.06;6704191;26;20247;-55
2024/04/16 10:24:06;;;;;;;1.00;0.60;;;;;;;5.17;100.00;96779.88;6676221;26;20316;-56
2024/04/16 10:27:09;;;;;;;2.23;0.83;;;;;;;5.21;100.00;96769.66;6707033;26;20238;-56
2024/04/16 10:30:15;;;;;;;1.53;0.70;;;;;;;5.47;100.00;96764.91;6700137;26;20322;-52
2024/04/16 10:33:24;;;;;;;2.67;0.67;;;;;;;5.38;100.00;96783.78;6714777;26;20292;-57
2024/04/16 10:36:28;;;;;;;1.70;0.80;;;;;;;5.39;100.00;96760.81;6707003;26;20247;-54
2024/04/16 10:39:32;;;;;;;4.97;1.03;;;;;;;5.41;100.00;96748.16;6709749;26;20797;-55
2024/04/16 10:42:37;;;;;;;1.70;0.97;;;;;;;5.38;100.00;96741.53;6705265;26;20629;-54
2024/04/16 10:45:44;;;;;;;1.50;0.73;;;;;;;5.45;100.00;96738.75;6720753;26;20238;-54
2024/04/16 10:48:47;;;;;;;4.73;1.10;;;;;;;5.63;100.00;96711.38;6705252;26;20431;-55
2024/04/16 10:51:54;;;;;;;1.80;0.80;;;;;;;5.76;98.14;96721.66;6704410;26;20240;-54
2024/04/16 10:54:57;;;;;;;2.60;0.87;;;;;;;5.74;100.00;96731.69;6704846;26;20343;-55
2024/04/16 10:57:59;;;;;;;1.53;1.03;;;;;;;5.86;100.00;96768.63;6705067;26;20339;-56
2024/04/16 11:01:02;;;;;;;3.10;1.20;;;;;;;5.88;100.00;96806.22;6709115;26;20325;-57
2024/04/16 11:04:07;;;;;;;2.70;0.90;;;;;;;5.79;100.00;96760.84;6702507;26;20316;-55
2024/04/16 11:07:10;;;;;;;3.17;1.30;;;;;;;5.85;100.00;96770.47;6704707;26;20356;-56
2024/04/16 11:10:12;;;;;;;3.83;1.37;;;;;;;5.94;95.75;96750.59;6710126;26;20246;-55
2024/04/16 11:13:16;;;;;;;5.67;0.90;;;;;;;5.96;97.67;96750.41;6711762;26;20352;-57
2024/04/16 11:16:21;;;;;;;1.57;0.90;;;;;;;5.91;100.00;96737.03;6710444;26;20245;-56
2024/04/16 11:19:24;;;;;;;3.33;0.90;;;;;;;6.18;100.00;96746.03;6722300;26;20250;-56
2024/04/16 11:22:27;;;;;;;1.40;0.90;;;;;;;6.14;90.39;96715.81;6710550;26;20620;-53
2024/04/16 11:25:33;;;;;;;1.60;0.77;;;;;;;6.22;95.81;96725.22;6714365;26;20315;-56
2024/04/16 11:28:40;;;;;;;4.63;1.20;;;;;;;6.21;100.00;96713.03;6682861;26;20244;-54
2024/04/16 11:31:42;;;;;;;1.03;0.80;;;;;;;6.24;90.66;96719.69;6705605;26;20236;-54
2024/04/16 11:34:46;;;;;;;4.50;0.93;;;;;;;6.31;98.09;96729.09;6705520;26;20247;-57
2024/04/16 11:37:50;;;;;;;3.27;1.30;;;;;;;6.33;100.00;96734.94;6696697;26;20239;-57
2024/04/16 11:40:53;;;;;;;3.03;0.97;;;;;;;6.34;100.00;96725.94;6708118;26;20318;-55
2024/04/16 11:44:06;;;;;;;1.67;0.80;;;;;;;6.33;100.00;96736.78;6711053;26;20284;-57
2024/04/16 11:47:12;;;;;;;2.07;0.70;;;;;;;6.33;100.00;96731.50;6703997;26;20232;-56
2024/04/16 11:50:16;;;;;;;1.77;0.70;;;;;;;6.37;100.00;96720.19;6709587;26;20245;-58
2024/04/16 11:53:18;;;;;;;1.80;0.83;;;;;;;6.32;100.00;96709.53;6709552;26;20286;-53
2024/04/16 11:56:21;;;;;;;3.23;1.00;;;;;;;6.51;90.88;96704.81;6702617;26;20388;-56
2024/04/16 11:59:23;;;;;;;3.30;0.90;;;;;;;6.50;93.70;96700.56;6703897;26;20239;-57
2024/04/16 12:02:26;;;;;;;2.97;1.03;;;;;;;6.51;100.00;96717.25;6703833;26;20331;-56
2024/04/16 12:05:29;;;;;;;5.43;1.20;;;;;;;6.43;99.55;96724.53;6709135;26;20295;-55
2024/04/16 12:08:32;;;;;;;4.57;1.10;;;;;;;6.44;100.00;96730.63;6704530;26;21012;-55
2024/04/16 12:11:34;;;;;;;3.77;1.10;;;;;;;6.37;100.00;96730.78;6703575;26;20844;-56
2024/04/16 12:14:37;;;;;;;2.53;0.90;;;;;;;6.39;100.00;96722.59;6721783;26;20248;-56
2024/04/16 12:17:39;;;;;;;4.07;1.07;;;;;;;6.38;86.62;96723.66;6715500;26;20239;-56
2024/04/16 12:20:42;;;;;;;3.20;0.90;;;;;;;6.46;100.00;96721.41;6713531;26;20394;-55
2024/04/16 12:23:47;;;;;;;3.20;1.27;;;;;;;6.45;100.00;96711.06;6702374;26;20294;-56
2024/04/16 12:26:50;;;;;;;3.03;0.90;;;;;;;6.47;100.00;96704.50;6707380;26;20250;-56
2024/04/16 12:29:52;;;;;;;0.77;0.50;;;;;;;6.47;100.00;96693.91;6709154;26;20299;-55
2024/04/16 12:32:55;;;;;;;2.00;0.87;;;;;;;6.50;100.00;96692.63;6716695;26;20235;-55
2024/04/16 12:36:13;;;;;;;3.97;1.00;;;;;;;6.52;100.00;96687.09;6706626;26;20236;-56
2024/04/16 12:39:15;;;;;;;3.57;1.30;;;;;;;6.57;100.00;96701.22;6702405;26;20362;-56
2024/04/16 12:42:18;;;;;;;2.50;0.90;;;;;;;6.70;87.43;96706.19;6717576;26;20244;-57
2024/04/16 12:45:20;;;;;;;1.53;1.10;;;;;;;6.75;100.00;96700.19;6705955;26;20243;-56
2024/04/16 12:48:23;;;;;;;1.83;0.90;;;;;;;6.66;100.00;96688.41;6707419;26;20345;-56
2024/04/16 12:51:26;;;;;;;2.83;0.90;;;;;;;6.66;100.00;96717.50;6699867;26;20304;-56
2024/04/16 12:54:28;;;;;;;2.23;0.80;;;;;;;6.64;100.00;96704.50;6719547;26;20252;-55
2024/04/16 12:57:31;;;;;;;1.93;0.90;;;;;;;6.83;100.00;96713.00;6696370;26;20292;-55
2024/04/16 13:00:33;;;;;;;3.57;0.80;;;;;;;6.66;100.00;96689.19;6679559;26;20244;-54
2024/04/16 13:03:36;;;;;;;6.10;0.90;;;;;;;6.74;100.00;96706.50;6711170;26;20244;-56
2024/04/16 13:06:38;;;;;;;2.13;0.60;;;;;;;6.70;100.00;96718.63;6701620;26;20237;-54
2024/04/16 13:09:41;;;;;;;2.37;1.20;;;;;;;6.71;100.00;96710.44;6738602;26;20291;-55
2024/04/16 13:12:44;;;;;;;2.50;1.07;;;;;;;6.70;100.00;96723.94;6687595;26;20591;-53
2024/04/16 13:15:47;;;;;;;4.07;1.07;;;;;;;6.60;100.00;96708.69;6703090;26;20620;-54
2024/04/16 13:18:49;;;;;;;3.23;1.10;;;;;;;6.77;100.00;96713.16;6701801;26;20232;-57
2024/04/16 13:21:52;;;;;;;1.63;0.90;;;;;;;6.82;100.00;96722.00;6716804;26;21027;-56
2024/04/16 13:24:54;;;;;;;2.13;1.10;;;;;;;6.82;100.00;96703.47;6704672;26;20665;-54
2024/04/16 13:27:57;;;;;;;1.30;0.87;;;;;;;6.85;94.99;96694.25;6706976;26;20250;-53
2024/04/16 13:31:00;;;;;;;4.47;1.10;;;;;;;6.92;100.00;96690.38;6700869;26;20241;-54
2024/04/16 13:34:02;;;;;;;0.60;0.60;;;;;;;6.96;100.00;96672.97;6717885;26;20244;-54
2024/04/16 13:37:05;;;;;;;1.63;0.90;;;;;;;6.98;100.00;96664.75;6725032;26;20697;-56
2024/04/16 13:40:08;;;;;;;1.93;0.93;;;;;;;6.94;98.06;96666.28;6716841;26;20253;-54
2024/04/16 13:43:17;;;;;;;3.43;1.20;;;;;;;7.03;92.79;96666.69;6708246;26;20292;-56
2024/04/16 13:46:20;;;;;;;2.43;1.00;;;;;;;7.06;84.18;96682.91;6705733;26;20271;-55
2024/04/16 13:49:22;;;;;;;1.73;1.03;;;;;;;7.28;88.48;96677.63;6721359;26;20291;-55
2024/04/16 13:52:25;;;;;;;1.63;0.70;;;;;;;7.19;96.42;96689.69;6717663;26;20237;-54
2024/04/16 13:55:28;;;;;;;3.53;0.90;;;;;;;7.21;85.36;96693.69;6705574;26;20699;-52
2024/04/16 13:58:31;;;;;;;1.60;1.17;;;;;;;7.21;81.65;96692.91;6703429;26;20279;-54
2024/04/16 14:01:33;;;;;;;5.57;1.07;;;;;;;7.26;83.34;96687.66;6704297;26;20591;-53
2024/04/16 14:04:36;;;;;;;3.07;1.30;;;;;;;7.30;89.33;96680.84;6721227;26;20360;-55
2024/04/16 14:07:39;;;;;;;1.33;0.70;;;;;;;7.26;79.32;96684.22;6707856;26;20746;-57
2024/04/16 14:10:41;;;;;;;1.33;0.70;;;;;;;7.24;81.75;96671.19;6716229;26;20283;-53
2024/04/16 14:13:44;;;;;;;2.60;1.00;;;;;;;7.23;76.43;96666.94;6731184;26;20774;-55
2024/04/16 14:16:47;;;;;;;5.00;1.37;;;;;;;7.55;74.20;96674.25;6699641;26;20286;-53
2024/04/16 14:19:50;;;;;;;0.83;0.80;;;;;;;7.39;81.58;96670.59;6712739;26;20237;-56
2024/04/16 14:22:54;;;;;;;3.73;0.90;;;;;;;7.28;78.62;96674.97;6706040;26;20229;-54
2024/04/16 14:25:56;;;;;;;2.60;1.00;;;;;;;7.27;79.74;96668.06;6705129;26;20233;-54